createdAt,value
2022-10-24T00:01:21.282Z,86.19
2022-10-24T00:03:23.219Z,86.73
2022-10-24T00:05:26.237Z,86.64
2022-10-24T00:07:28.162Z,86.46
2022-10-24T00:09:30.374Z,86.43
2022-10-24T00:11:32.343Z,86.50
2022-10-24T00:13:34.399Z,86.43
2022-10-24T00:15:36.250Z,86.47
2022-10-24T00:17:38.215Z,86.63
2022-10-24T00:19:40.242Z,86.43
2022-10-24T00:21:42.263Z,86.38
2022-10-24T00:23:45.461Z,86.35
2022-10-24T00:25:48.520Z,86.36
2022-10-24T00:27:51.511Z,86.46
2022-10-24T00:29:53.592Z,86.05
2022-10-24T00:31:55.473Z,86.25
2022-10-24T00:33:58.170Z,86.32
2022-10-24T00:36:00.384Z,86.18
2022-10-24T00:38:02.411Z,86.21
2022-10-24T00:40:06.111Z,86.37
2022-10-24T00:42:11.711Z,86.46
2022-10-24T00:44:17.480Z,86.58
2022-10-24T00:46:20.619Z,86.24
2022-10-24T00:48:25.602Z,86.21
2022-10-24T00:50:33.772Z,86.43
2022-10-24T00:52:43.166Z,86.13
2022-10-24T00:54:46.723Z,86.28
2022-10-24T00:57:00.317Z,86.67
2022-10-24T00:59:05.380Z,86.28
2022-10-24T01:01:09.323Z,86.52
2022-10-24T01:03:12.539Z,86.52
2022-10-24T01:05:15.619Z,86.59
2022-10-24T01:07:33.320Z,86.31
2022-10-24T01:09:35.194Z,86.42
2022-10-24T01:11:42.792Z,86.26
2022-10-24T01:13:47.528Z,86.22
2022-10-24T01:16:03.883Z,86.76
2022-10-24T01:18:23.991Z,86.65
2022-10-24T01:20:50.818Z,86.54
2022-10-24T01:23:40.336Z,86.83
2022-10-24T01:26:14.831Z,86.69
2022-10-24T01:28:23.405Z,86.51
2022-10-24T01:30:29.916Z,86.68
2022-10-24T01:32:48.020Z,86.51
2022-10-24T01:35:00.621Z,86.38
2022-10-24T01:37:13.779Z,86.17
2022-10-24T01:39:21.497Z,86.44
2022-10-24T01:41:28.788Z,86.45
2022-10-24T01:43:42.274Z,86.32
2022-10-24T01:45:49.319Z,86.60
2022-10-24T01:47:55.559Z,86.15
2022-10-24T01:50:01.691Z,86.25
2022-10-24T01:52:08.553Z,86.20
2022-10-24T01:54:13.378Z,86.27
2022-10-24T01:56:15.335Z,86.43
2022-10-24T01:58:18.575Z,86.26
2022-10-24T02:00:23.256Z,86.43
2022-10-24T02:02:33.410Z,85.97
2022-10-24T02:04:41.128Z,86.18
2022-10-24T02:06:44.669Z,86.16
2022-10-24T02:08:53.000Z,86.54
2022-10-24T02:11:00.639Z,86.61
2022-10-24T02:13:09.511Z,86.11
2022-10-24T02:15:41.583Z,86.21
2022-10-24T02:17:43.636Z,86.23
2022-10-24T02:19:47.733Z,86.37
2022-10-24T02:22:02.344Z,86.12
2022-10-24T02:24:24.519Z,86.54
2022-10-24T02:26:39.014Z,86.37
2022-10-24T02:28:45.793Z,86.29
2022-10-24T02:31:12.441Z,86.32
2022-10-24T02:33:21.218Z,86.00
2022-10-24T02:35:31.394Z,85.90
2022-10-24T02:37:36.640Z,86.46
2022-10-24T02:39:43.460Z,86.01
2022-10-24T02:41:46.958Z,86.02
2022-10-24T02:43:51.275Z,86.00
2022-10-24T02:45:54.602Z,85.75
2022-10-24T02:48:03.340Z,85.67
2022-10-24T02:50:05.660Z,85.92
2022-10-24T02:52:10.207Z,85.82
2022-10-24T02:54:12.517Z,85.97
2022-10-24T02:56:14.639Z,86.05
2022-10-24T02:58:16.773Z,85.87
2022-10-24T03:00:19.125Z,85.79
2022-10-24T03:02:21.402Z,85.65
2022-10-24T03:04:23.325Z,85.57
2022-10-24T03:06:25.549Z,85.61
2022-10-24T03:08:27.573Z,85.73
2022-10-24T03:10:29.613Z,85.77
2022-10-24T03:12:32.592Z,85.55
2022-10-24T03:14:34.620Z,85.27
2022-10-24T03:16:37.530Z,85.20
2022-10-24T03:18:40.414Z,85.39
2022-10-24T03:20:42.265Z,85.53
2022-10-24T03:22:44.236Z,85.46
2022-10-24T03:24:55.180Z,84.94
2022-10-24T03:26:57.467Z,85.56
2022-10-24T03:28:59.470Z,85.56
2022-10-24T03:31:01.452Z,85.29
2022-10-24T03:33:03.512Z,85.28
2022-10-24T03:35:09.153Z,85.06
2022-10-24T03:37:13.760Z,84.94
2022-10-24T03:39:16.600Z,85.02
2022-10-24T03:41:18.626Z,85.11
2022-10-24T03:43:20.724Z,85.06
2022-10-24T03:45:22.694Z,85.01
2022-10-24T03:47:24.574Z,85.20
2022-10-24T03:49:26.550Z,84.73
2022-10-24T03:51:28.474Z,85.04
2022-10-24T03:53:30.414Z,85.15
2022-10-24T03:55:32.438Z,85.03
2022-10-24T03:57:34.413Z,84.88
2022-10-24T03:59:37.023Z,84.89
2022-10-24T04:01:38.981Z,85.17
2022-10-24T04:03:41.005Z,85.01
2022-10-24T04:05:43.020Z,85.35
2022-10-24T04:07:45.193Z,85.08
2022-10-24T04:09:47.343Z,85.18
2022-10-24T04:11:49.428Z,85.35
2022-10-24T04:13:53.157Z,85.21
2022-10-24T04:15:55.118Z,85.22
2022-10-24T04:17:57.152Z,85.21
2022-10-24T04:20:00.023Z,85.22
2022-10-24T04:22:02.003Z,85.60
2022-10-24T04:24:04.590Z,85.09
2022-10-24T04:26:08.942Z,85.08
2022-10-24T04:28:12.301Z,85.12
2022-10-24T04:30:16.923Z,84.85
2022-10-24T04:32:18.954Z,85.27
2022-10-24T04:34:21.836Z,85.11
2022-10-24T04:36:23.835Z,84.95
2022-10-24T04:38:27.003Z,84.88
2022-10-24T04:40:31.951Z,85.05
2022-10-24T04:42:34.296Z,84.75
2022-10-24T04:44:36.158Z,84.91
2022-10-24T04:46:38.633Z,85.23
2022-10-24T04:48:40.600Z,84.89
2022-10-24T04:50:45.437Z,85.22
2022-10-24T04:52:47.439Z,84.95
2022-10-24T04:54:49.433Z,84.93
2022-10-24T04:56:51.399Z,84.81
2022-10-24T04:58:53.565Z,84.64
2022-10-24T05:00:55.798Z,84.73
2022-10-24T05:02:59.108Z,84.56
2022-10-24T05:05:01.505Z,84.60
2022-10-24T05:07:05.421Z,84.57
2022-10-24T05:09:07.375Z,84.78
2022-10-24T05:11:12.595Z,84.62
2022-10-24T05:13:14.644Z,84.54
2022-10-24T05:15:18.879Z,84.83
2022-10-24T05:17:20.767Z,84.53
2022-10-24T05:19:23.643Z,84.56
2022-10-24T05:21:25.720Z,84.23
2022-10-24T05:23:27.981Z,84.70
2022-10-24T05:25:29.996Z,84.46
2022-10-24T05:27:32.389Z,84.48
2022-10-24T05:29:34.375Z,84.29
2022-10-24T05:31:36.347Z,84.27
2022-10-24T05:33:38.274Z,84.66
2022-10-24T05:35:41.900Z,84.64
2022-10-24T05:37:44.965Z,84.61
2022-10-24T05:39:46.886Z,84.65
2022-10-24T05:41:52.146Z,84.85
2022-10-24T05:43:56.389Z,84.91
2022-10-24T05:45:58.511Z,84.60
2022-10-24T05:48:00.451Z,84.74
2022-10-24T05:50:02.596Z,84.54
2022-10-24T05:52:05.205Z,84.51
2022-10-24T05:54:07.196Z,84.32
2022-10-24T05:56:09.379Z,84.36
2022-10-24T05:58:13.386Z,84.43
2022-10-24T06:00:17.897Z,84.09
2022-10-24T06:02:21.320Z,83.97
2022-10-24T06:04:23.593Z,83.85
2022-10-24T06:06:25.694Z,83.92
2022-10-24T06:08:27.714Z,83.68
2022-10-24T06:10:36.041Z,83.66
2022-10-24T06:12:38.249Z,83.98
2022-10-24T06:14:40.749Z,83.46
2022-10-24T06:16:43.637Z,83.62
2022-10-24T06:18:45.672Z,83.78
2022-10-24T06:20:51.642Z,83.88
2022-10-24T06:22:55.996Z,83.55
2022-10-24T06:24:58.225Z,83.59
2022-10-24T06:27:00.188Z,83.34
2022-10-24T06:29:02.087Z,83.62
2022-10-24T06:31:04.536Z,83.66
2022-10-24T06:33:06.607Z,83.65
2022-10-24T06:35:09.340Z,83.99
2022-10-24T06:37:11.414Z,83.75
2022-10-24T06:39:13.446Z,83.96
2022-10-24T06:41:17.485Z,83.56
2022-10-24T06:43:22.437Z,83.73
2022-10-24T06:45:24.323Z,84.13
2022-10-24T06:47:28.441Z,83.86
2022-10-24T06:49:30.859Z,84.26
2022-10-24T06:51:32.821Z,84.10
2022-10-24T06:53:35.560Z,84.52
2022-10-24T06:55:40.817Z,84.30
2022-10-24T06:57:43.059Z,84.43
2022-10-24T06:59:46.252Z,84.52
2022-10-24T07:01:48.595Z,84.06
2022-10-24T07:03:52.158Z,84.12
2022-10-24T07:05:54.228Z,83.91
2022-10-24T07:07:56.215Z,83.35
2022-10-24T07:09:59.239Z,83.47
2022-10-24T07:12:02.478Z,83.42
2022-10-24T07:14:08.967Z,83.04
2022-10-24T07:16:11.691Z,83.06
2022-10-24T07:18:16.458Z,82.95
2022-10-24T07:20:20.402Z,82.98
2022-10-24T07:22:22.773Z,82.66
2022-10-24T07:24:25.076Z,82.93
2022-10-24T07:26:28.600Z,82.82
2022-10-24T07:28:30.695Z,82.83
2022-10-24T07:30:33.317Z,82.97
2022-10-24T07:32:36.325Z,83.27
2022-10-24T07:34:41.864Z,83.11
2022-10-24T07:36:46.249Z,83.07
2022-10-24T07:38:49.738Z,82.88
2022-10-24T07:40:51.654Z,83.04
2022-10-24T07:42:53.734Z,83.01
2022-10-24T07:44:56.086Z,83.30
2022-10-24T07:46:57.998Z,83.31
2022-10-24T07:49:00.020Z,82.77
2022-10-24T07:51:12.783Z,83.47
2022-10-24T07:53:15.335Z,83.36
2022-10-24T07:55:18.364Z,83.27
2022-10-24T07:57:20.759Z,82.83
2022-10-24T07:59:40.810Z,83.16
2022-10-24T08:01:44.105Z,82.91
2022-10-24T08:03:46.573Z,82.67
2022-10-24T08:05:48.462Z,82.74
2022-10-24T08:07:56.052Z,82.86
2022-10-24T08:10:14.535Z,82.65
2022-10-24T08:12:16.463Z,82.61
2022-10-24T08:14:18.440Z,82.52
2022-10-24T08:16:22.515Z,81.90
2022-10-24T08:18:24.416Z,81.83
2022-10-24T08:20:26.476Z,81.80
2022-10-24T08:22:29.481Z,81.81
2022-10-24T08:24:31.454Z,81.56
2022-10-24T08:26:33.606Z,81.84
2022-10-24T08:28:36.741Z,81.59
2022-10-24T08:30:38.649Z,81.61
2022-10-24T08:32:40.801Z,81.56
2022-10-24T08:34:43.733Z,81.87
2022-10-24T08:36:47.130Z,81.40
2022-10-24T08:38:49.273Z,81.63
2022-10-24T08:40:51.637Z,81.70
2022-10-24T08:42:54.775Z,81.58
2022-10-24T08:44:56.699Z,81.66
2022-10-24T08:49:58.444Z,80.94
2022-10-24T08:52:25.990Z,80.99
2022-10-24T08:54:37.488Z,80.62
2022-10-24T08:56:39.627Z,80.68
2022-10-24T08:58:45.305Z,80.31
2022-10-24T09:00:51.227Z,80.27
2022-10-24T09:03:03.291Z,78.49
2022-10-24T09:05:36.644Z,79.44
2022-10-24T09:07:40.166Z,78.77
2022-10-24T09:09:48.002Z,77.83
2022-10-24T09:12:16.850Z,77.64
2022-10-24T09:14:26.466Z,77.38
2022-10-24T09:16:28.571Z,76.92
2022-10-24T09:18:38.125Z,76.70
2022-10-24T09:20:40.142Z,76.70
2022-10-24T09:22:44.287Z,75.85
2022-10-24T09:24:48.655Z,75.93
2022-10-24T09:26:50.561Z,75.08
2022-10-24T09:28:52.468Z,74.99
2022-10-24T09:30:54.614Z,74.03
2022-10-24T09:32:59.003Z,73.72
2022-10-24T09:35:06.210Z,75.29
2022-10-24T09:37:08.317Z,74.94
2022-10-24T09:39:36.633Z,75.21
2022-10-24T09:41:38.820Z,74.34
2022-10-24T09:43:51.195Z,74.47
2022-10-24T09:46:01.880Z,75.29
2022-10-24T09:48:15.428Z,75.12
2022-10-24T09:50:23.389Z,74.44
2022-10-24T09:52:29.031Z,74.49
2022-10-24T09:54:32.806Z,74.68
2022-10-24T09:56:40.485Z,74.39
2022-10-24T09:58:43.266Z,74.21
2022-10-24T10:00:58.824Z,73.63
2022-10-24T10:03:23.454Z,74.11
2022-10-24T10:05:26.293Z,74.11
2022-10-24T10:07:31.089Z,73.70
2022-10-24T10:09:35.209Z,73.68
2022-10-24T10:11:40.581Z,73.87
2022-10-24T10:13:50.968Z,74.47
2022-10-24T10:16:00.321Z,73.27
2022-10-24T10:18:28.281Z,74.77
2022-10-24T10:20:41.326Z,73.28
2022-10-24T10:22:43.262Z,73.93
2022-10-24T10:24:46.362Z,73.71
2022-10-24T10:26:50.231Z,74.39
2022-10-24T10:29:23.357Z,72.85
2022-10-24T10:31:34.742Z,73.08
2022-10-24T10:33:40.315Z,71.92
2022-10-24T10:36:10.185Z,72.51
2022-10-24T10:38:36.875Z,73.35
2022-10-24T10:40:45.394Z,72.09
2022-10-24T10:43:02.602Z,71.25
2022-10-24T10:45:16.976Z,71.30
2022-10-24T10:47:51.085Z,70.70
2022-10-24T10:49:58.142Z,70.87
2022-10-24T10:52:13.957Z,71.86
2022-10-24T10:54:42.841Z,70.57
2022-10-24T10:57:01.928Z,70.31
2022-10-24T10:59:29.403Z,71.24
2022-10-24T11:02:03.678Z,70.31
2022-10-24T11:04:21.195Z,71.26
2022-10-24T11:06:50.409Z,71.85
2022-10-24T11:09:10.510Z,71.78
2022-10-24T11:11:21.202Z,70.97
2022-10-24T11:14:03.683Z,71.28
2022-10-24T11:16:17.926Z,71.60
2022-10-24T11:18:35.435Z,70.57
2022-10-24T11:21:18.269Z,70.33
2022-10-24T11:23:36.445Z,70.69
2022-10-24T11:25:51.115Z,71.69
2022-10-24T11:28:00.716Z,71.18
2022-10-24T11:30:12.734Z,70.46
2022-10-24T11:32:35.015Z,70.00
2022-10-24T11:34:45.415Z,71.20
2022-10-24T11:36:55.910Z,71.20
2022-10-24T11:39:14.603Z,70.54
2022-10-24T11:41:40.366Z,69.90
2022-10-24T11:43:47.040Z,70.23
2022-10-24T11:45:56.652Z,68.44
2022-10-24T11:48:22.081Z,68.12
2022-10-24T11:50:57.670Z,68.04
2022-10-24T11:53:15.142Z,66.93
2022-10-24T11:55:21.355Z,68.24
2022-10-24T11:57:29.173Z,67.03
2022-10-24T11:59:32.141Z,66.71
2022-10-24T12:01:55.977Z,66.90
2022-10-24T12:04:35.345Z,67.04
2022-10-24T12:07:07.438Z,66.22
2022-10-24T12:09:33.675Z,66.00
2022-10-24T12:11:57.206Z,66.60
2022-10-24T12:14:19.327Z,64.66
2022-10-24T12:16:47.095Z,64.70
2022-10-24T12:18:59.713Z,65.25
2022-10-24T12:21:16.831Z,65.73
2022-10-24T12:23:23.290Z,65.10
2022-10-24T12:25:38.741Z,64.99
2022-10-24T12:27:43.385Z,64.73
2022-10-24T12:29:45.492Z,63.88
2022-10-24T12:31:47.533Z,64.90
2022-10-24T12:34:18.754Z,63.80
2022-10-24T12:36:58.893Z,64.66
2022-10-24T12:39:00.868Z,64.88
2022-10-24T12:41:26.623Z,64.22
2022-10-24T12:43:36.140Z,64.41
2022-10-24T12:45:38.312Z,64.84
2022-10-24T12:48:04.202Z,64.00
2022-10-24T12:50:24.557Z,64.57
2022-10-24T12:52:32.468Z,63.32
2022-10-24T12:54:45.315Z,63.39
2022-10-24T12:57:16.020Z,63.51
2022-10-24T12:59:32.193Z,63.86
2022-10-24T13:01:35.989Z,63.44
2022-10-24T13:03:37.972Z,62.53
2022-10-24T13:05:57.813Z,63.80
2022-10-24T13:08:13.334Z,62.62
2022-10-24T13:10:44.914Z,63.47
2022-10-24T13:12:52.319Z,62.43
2022-10-24T13:15:10.474Z,63.16
2022-10-24T13:17:37.463Z,62.85
2022-10-24T13:19:40.857Z,63.16
2022-10-24T13:21:55.502Z,62.55
2022-10-24T13:24:15.584Z,63.75
2022-10-24T13:26:38.128Z,62.99
2022-10-24T13:28:40.807Z,62.93
2022-10-24T13:30:46.019Z,63.21
2022-10-24T13:32:51.072Z,63.71
2022-10-24T13:34:54.873Z,63.86
2022-10-24T13:37:15.078Z,64.43
2022-10-24T13:39:22.174Z,64.58
2022-10-24T13:41:34.210Z,64.72
2022-10-24T13:43:44.629Z,64.07
2022-10-24T13:45:57.733Z,63.60
2022-10-24T13:48:16.359Z,64.42
2022-10-24T13:50:20.856Z,65.40
2022-10-24T13:52:33.813Z,65.12
2022-10-24T13:54:38.480Z,65.46
2022-10-24T13:56:44.579Z,64.90
2022-10-24T13:58:47.605Z,65.10
2022-10-24T14:01:00.355Z,65.18
2022-10-24T14:03:05.922Z,65.02
2022-10-24T14:05:38.952Z,65.23
2022-10-24T14:07:45.151Z,65.18
2022-10-24T14:09:56.223Z,65.54
2022-10-24T14:11:59.603Z,65.63
2022-10-24T14:14:07.058Z,65.48
2022-10-24T14:16:15.152Z,65.81
2022-10-24T14:20:27.114Z,65.89
2022-10-24T14:22:42.758Z,66.14
2022-10-24T14:24:48.560Z,66.57
2022-10-24T14:26:53.558Z,66.88
2022-10-24T14:29:00.147Z,66.83
2022-10-24T14:31:05.580Z,67.29
2022-10-24T14:33:21.140Z,68.33
2022-10-24T14:35:23.239Z,68.24
2022-10-24T14:37:51.156Z,68.51
2022-10-24T14:39:54.718Z,68.98
2022-10-24T14:41:58.773Z,69.25
2022-10-24T14:44:02.430Z,69.30
2022-10-24T14:46:13.694Z,70.46
2022-10-24T14:48:28.655Z,70.35
2022-10-24T14:50:47.495Z,70.07
2022-10-24T14:52:50.393Z,69.94
2022-10-24T14:55:21.285Z,69.61
2022-10-24T14:57:24.100Z,70.23
2022-10-24T14:59:36.586Z,70.29
2022-10-24T15:01:38.605Z,70.05
2022-10-24T15:03:54.926Z,70.14
2022-10-24T15:06:10.124Z,69.91
2022-10-24T15:08:23.201Z,70.58
2022-10-24T15:10:32.964Z,70.65
2022-10-24T15:13:07.350Z,71.04
2022-10-24T15:15:24.051Z,72.64
2022-10-24T15:17:34.903Z,73.64
2022-10-24T15:19:38.759Z,74.88
2022-10-24T15:21:44.889Z,75.66
2022-10-24T15:23:56.320Z,76.66
2022-10-24T15:26:00.224Z,77.56
2022-10-24T15:28:04.094Z,77.30
2022-10-24T15:30:17.404Z,77.71
2022-10-24T15:32:19.308Z,78.34
2022-10-24T15:34:23.705Z,78.68
2022-10-24T15:36:34.904Z,78.20
2022-10-24T15:38:43.179Z,78.59
2022-10-24T15:40:47.649Z,78.76
2022-10-24T15:42:49.836Z,79.20
2022-10-24T15:44:51.776Z,80.16
2022-10-24T15:46:53.874Z,80.05
2022-10-24T15:48:55.919Z,80.25
2022-10-24T15:50:58.907Z,80.22
2022-10-24T15:53:02.572Z,80.49
2022-10-24T15:55:04.941Z,80.47
2022-10-24T15:57:07.018Z,81.18
2022-10-24T15:59:09.312Z,81.11
2022-10-24T16:01:30.664Z,81.25
2022-10-24T16:03:35.547Z,81.97
2022-10-24T16:05:40.963Z,81.90
2022-10-24T16:07:43.170Z,82.16
2022-10-24T16:09:45.226Z,82.42
2022-10-24T16:11:48.738Z,82.34
2022-10-24T16:13:51.304Z,82.07
2022-10-24T16:15:53.701Z,81.58
2022-10-24T16:17:58.323Z,81.93
2022-10-24T16:20:00.320Z,81.78
2022-10-24T16:22:03.821Z,82.24
2022-10-24T16:24:06.178Z,82.34
2022-10-24T16:26:08.314Z,81.85
2022-10-24T16:28:10.737Z,82.09
2022-10-24T16:30:13.851Z,82.44
2022-10-24T16:32:15.850Z,82.44
2022-10-24T16:34:17.881Z,83.18
2022-10-24T16:36:22.324Z,83.14
2022-10-24T16:38:26.787Z,83.46
2022-10-24T16:40:29.896Z,83.63
2022-10-24T16:42:31.868Z,83.95
2022-10-24T16:44:37.107Z,83.12
2022-10-24T16:46:39.599Z,82.44
2022-10-24T16:48:41.604Z,82.81
2022-10-24T16:50:46.952Z,82.75
2022-10-24T16:52:49.022Z,82.85
2022-10-24T16:54:51.110Z,82.84
2022-10-24T16:56:54.076Z,82.72
2022-10-24T16:58:59.354Z,83.21
2022-10-24T17:01:06.218Z,83.40
2022-10-24T17:03:08.585Z,83.29
2022-10-24T17:05:10.645Z,83.75
2022-10-24T17:07:15.452Z,83.51
2022-10-24T17:09:21.677Z,82.60
2022-10-24T17:11:44.520Z,82.07
2022-10-24T17:13:47.571Z,83.31
2022-10-24T17:15:50.028Z,83.06
2022-10-24T17:17:52.421Z,83.83
2022-10-24T17:19:54.832Z,84.19
2022-10-24T17:21:58.498Z,84.20
2022-10-24T17:24:01.340Z,83.33
2022-10-24T17:26:03.477Z,82.30
2022-10-24T17:28:06.435Z,83.75
2022-10-24T17:30:12.767Z,82.73
2022-10-24T17:32:15.364Z,82.20
2022-10-24T17:34:17.915Z,83.04
2022-10-24T17:36:28.815Z,82.77
2022-10-24T17:38:42.943Z,82.84
2022-10-24T17:40:48.762Z,82.42
2022-10-24T17:42:51.017Z,83.61
2022-10-24T17:44:53.889Z,83.41
2022-10-24T17:46:58.520Z,82.88
2022-10-24T17:49:00.492Z,83.61
2022-10-24T17:51:02.910Z,83.79
2022-10-24T17:53:05.377Z,83.93
2022-10-24T17:55:41.021Z,84.16
2022-10-24T17:57:40.933Z,83.23
2022-10-24T17:59:43.669Z,82.83
2022-10-24T18:01:48.676Z,83.62
2022-10-24T18:03:52.155Z,84.25
2022-10-24T18:05:59.240Z,84.71
2022-10-24T18:08:01.353Z,84.23
2022-10-24T18:10:03.836Z,84.48
2022-10-24T18:12:07.967Z,85.10
2022-10-24T18:14:10.536Z,85.09
2022-10-24T18:16:17.341Z,85.15
2022-10-24T18:18:23.861Z,85.63
2022-10-24T18:20:26.398Z,85.50
2022-10-24T18:22:33.452Z,85.54
2022-10-24T18:24:36.992Z,85.44
2022-10-24T18:26:39.474Z,85.68
2022-10-24T18:28:44.195Z,85.48
2022-10-24T18:30:51.695Z,85.68
2022-10-24T18:32:54.215Z,85.05
2022-10-24T18:34:56.757Z,85.61
2022-10-24T18:36:59.170Z,86.02
2022-10-24T18:39:02.064Z,86.07
2022-10-24T18:41:04.813Z,85.92
2022-10-24T18:43:08.250Z,85.81
2022-10-24T18:45:20.288Z,85.77
2022-10-24T18:47:25.642Z,85.48
2022-10-24T18:49:29.927Z,85.64
2022-10-24T18:51:46.302Z,85.83
2022-10-24T18:53:51.182Z,85.66
2022-10-24T18:55:56.214Z,85.75
2022-10-24T18:57:59.101Z,85.80
2022-10-24T19:00:02.435Z,85.59
2022-10-24T19:02:04.874Z,85.84
2022-10-24T19:04:17.183Z,85.08
2022-10-24T19:06:26.095Z,85.36
2022-10-24T19:08:28.691Z,85.51
2022-10-24T19:10:30.808Z,85.43
2022-10-24T19:12:36.868Z,86.02
2022-10-24T19:14:43.628Z,85.49
2022-10-24T19:16:49.864Z,85.54
2022-10-24T19:18:56.301Z,85.55
2022-10-24T19:21:02.457Z,85.46
2022-10-24T19:23:07.041Z,85.82
2022-10-24T19:25:09.660Z,85.39
2022-10-24T19:27:17.509Z,85.76
2022-10-24T19:29:21.766Z,85.86
2022-10-24T19:31:24.560Z,85.65
2022-10-24T19:33:28.620Z,86.17
2022-10-24T19:35:30.965Z,85.63
2022-10-24T19:37:33.440Z,85.93
2022-10-24T19:39:38.187Z,86.24
2022-10-24T19:41:40.736Z,86.01
2022-10-24T19:43:43.146Z,85.92
2022-10-24T19:45:50.428Z,85.52
2022-10-24T19:47:57.874Z,85.75
2022-10-24T19:50:00.743Z,85.48
2022-10-24T19:52:04.385Z,86.17
2022-10-24T19:54:07.867Z,85.59
2022-10-24T19:56:17.393Z,85.71
2022-10-24T19:58:22.736Z,85.56
2022-10-24T20:00:26.691Z,85.54
2022-10-24T20:02:29.058Z,85.64
2022-10-24T20:04:31.974Z,85.69
2022-10-24T20:06:35.835Z,85.73
2022-10-24T20:08:38.227Z,85.21
2022-10-24T20:10:40.560Z,84.74
2022-10-24T20:12:43.010Z,84.70
2022-10-24T20:14:45.473Z,84.57
2022-10-24T20:16:47.771Z,84.33
2022-10-24T20:18:54.184Z,84.64
2022-10-24T20:20:58.084Z,84.08
2022-10-24T20:23:00.344Z,83.63
2022-10-24T20:25:02.274Z,83.44
2022-10-24T20:29:06.896Z,83.28
2022-10-24T20:31:09.483Z,83.13
2022-10-24T20:33:14.903Z,82.74
2022-10-24T20:35:16.926Z,82.52
2022-10-24T20:37:23.773Z,81.98
2022-10-24T20:39:26.407Z,82.02
2022-10-24T20:41:29.631Z,81.86
2022-10-24T20:43:31.827Z,81.39
2022-10-24T20:45:35.357Z,81.01
2022-10-24T20:47:37.405Z,80.74
2022-10-24T20:49:39.452Z,80.76
2022-10-24T20:51:43.135Z,80.07
2022-10-24T20:53:45.921Z,80.23
2022-10-24T20:55:47.877Z,79.48
2022-10-24T20:57:52.217Z,79.70
2022-10-24T20:59:55.200Z,79.61
2022-10-24T21:01:57.310Z,79.54
2022-10-24T21:03:59.686Z,79.29
2022-10-24T21:06:02.430Z,79.02
2022-10-24T21:08:04.621Z,78.52
2022-10-24T21:10:10.815Z,78.34
2022-10-24T21:12:13.204Z,78.08
2022-10-24T21:14:26.476Z,78.14
2022-10-24T21:16:31.534Z,77.70
2022-10-24T21:18:33.558Z,77.41
2022-10-24T21:20:36.372Z,77.25
2022-10-24T21:22:39.267Z,77.68
2022-10-24T21:24:44.423Z,77.44
2022-10-24T21:26:46.671Z,76.74
2022-10-24T21:28:49.347Z,76.72
2022-10-24T21:30:51.205Z,77.10
2022-10-24T21:32:53.203Z,76.55
2022-10-24T21:34:55.181Z,76.03
2022-10-24T21:36:57.274Z,76.49
2022-10-24T21:38:59.886Z,77.11
2022-10-24T21:41:07.297Z,76.42
2022-10-24T21:43:09.269Z,76.37
2022-10-24T21:45:11.508Z,76.61
2022-10-24T21:47:13.408Z,76.98
2022-10-24T21:49:15.423Z,76.72
2022-10-24T21:51:18.808Z,76.69
2022-10-24T21:53:20.812Z,77.08
2022-10-24T21:55:22.951Z,76.64
2022-10-24T21:57:24.901Z,77.02
2022-10-24T21:59:29.039Z,76.69
2022-10-24T22:01:35.315Z,77.47
2022-10-24T22:03:37.950Z,77.76
2022-10-24T22:05:39.810Z,77.69
2022-10-24T22:07:43.042Z,77.87
2022-10-24T22:09:47.008Z,78.15
2022-10-24T22:11:51.944Z,78.64
2022-10-24T22:13:55.336Z,78.71
2022-10-24T22:15:57.737Z,78.27
2022-10-24T22:17:59.566Z,77.65
2022-10-24T22:20:01.396Z,78.32
2022-10-24T22:22:03.410Z,78.73
2022-10-24T22:24:14.554Z,78.42
2022-10-24T22:26:16.518Z,79.22
2022-10-24T22:28:18.726Z,78.68
2022-10-24T22:30:20.578Z,78.30
2022-10-24T22:32:23.881Z,78.28
2022-10-24T22:34:27.290Z,78.69
2022-10-24T22:36:59.202Z,79.19
2022-10-24T22:39:01.465Z,79.00
2022-10-24T22:41:03.765Z,78.48
2022-10-24T22:43:07.007Z,78.84
2022-10-24T22:45:12.767Z,78.57
2022-10-24T22:47:35.746Z,78.77
2022-10-24T22:50:09.781Z,78.31
2022-10-24T22:52:12.184Z,78.40
2022-10-24T22:54:23.142Z,78.33
2022-10-24T22:56:33.613Z,78.75
2022-10-24T22:58:35.833Z,78.77
2022-10-24T23:00:38.295Z,78.88
2022-10-24T23:02:45.764Z,78.70
2022-10-24T23:04:53.821Z,78.76
2022-10-24T23:07:11.682Z,78.27
2022-10-24T23:09:13.571Z,78.86
2022-10-24T23:11:15.724Z,78.77
2022-10-24T23:13:17.785Z,78.81
2022-10-24T23:15:21.606Z,78.70
2022-10-24T23:17:28.728Z,78.94
2022-10-24T23:19:32.351Z,78.91
2022-10-24T23:21:41.936Z,79.47
2022-10-24T23:23:44.148Z,79.26
2022-10-24T23:26:03.849Z,79.33
2022-10-24T23:28:08.201Z,79.46
2022-10-24T23:30:18.112Z,79.67
2022-10-24T23:32:26.084Z,79.84
2022-10-24T23:34:28.247Z,80.09
2022-10-24T23:36:30.403Z,80.50
2022-10-24T23:38:32.825Z,80.85
2022-10-24T23:40:36.502Z,80.72
2022-10-24T23:42:38.697Z,80.71
2022-10-24T23:44:40.792Z,80.94
2022-10-24T23:46:48.407Z,81.19
2022-10-24T23:49:25.511Z,81.78
2022-10-24T23:51:27.533Z,82.44
2022-10-24T23:53:53.274Z,81.80
2022-10-24T23:55:55.775Z,82.20
2022-10-24T23:57:57.780Z,82.43
